Time;durP1;ratioP1;P1;durP2;ratioP2;P2;SDS_P1;SDS_P2;PMS_P1;PMS_P2;Temp;Humidity;BMP_temperature;BMP_pressure;BME280_temperature;BME280_humidity;BME280_pressure;Samples;Min_cycle;Max_cycle;Signal;HPM_P1;HPM_P2
2023/04/01 00:01:51;;;;;;;6.50;1.73;;;;;;;10.19;100.00;99146.28;5074578;28;20441;-68
2023/04/01 00:04:18;;;;;;;6.40;1.47;;;;;;;10.17;100.00;99145.81;5074150;28;20564;-68
2023/04/01 00:06:44;;;;;;;7.80;1.70;;;;;;;10.14;100.00;99148.38;5074647;28;20443;-68
2023/04/01 00:09:11;;;;;;;5.87;1.57;;;;;;;10.11;100.00;99155.28;5074522;28;20537;-68
2023/04/01 00:11:38;;;;;;;5.90;1.43;;;;;;;10.13;100.00;99144.88;5074145;28;20441;-68
2023/04/01 00:14:04;;;;;;;5.53;1.50;;;;;;;10.16;100.00;99149.66;5074305;28;20554;-68
2023/04/01 00:16:31;;;;;;;6.60;1.97;;;;;;;10.18;100.00;99150.13;5074339;28;20485;-68
2023/04/01 00:18:59;;;;;;;5.30;1.40;;;;;;;10.18;100.00;99155.53;5074205;28;20456;-68
2023/04/01 00:21:26;;;;;;;6.07;1.70;;;;;;;10.17;100.00;99153.94;5074154;28;20460;-67
2023/04/01 00:23:53;;;;;;;5.97;1.73;;;;;;;10.15;100.00;99152.69;5074056;28;20458;-68
2023/04/01 00:26:21;;;;;;;7.73;1.60;;;;;;;10.15;100.00;99150.78;5074051;28;20448;-68
2023/04/01 00:28:48;;;;;;;5.80;1.40;;;;;;;10.17;100.00;99148.50;5073741;28;20448;-67
2023/04/01 00:31:15;;;;;;;6.07;1.40;;;;;;;10.14;100.00;99159.22;5073897;28;20492;-67
2023/04/01 00:33:41;;;;;;;7.13;1.40;;;;;;;10.14;100.00;99157.31;5073778;28;20854;-68
2023/04/01 00:36:11;;;;;;;6.00;1.80;;;;;;;10.13;100.00;99149.50;5073821;28;20568;-68
2023/04/01 00:38:40;;;;;;;4.97;1.13;;;;;;;10.14;100.00;99159.22;5073878;28;20491;-67
2023/04/01 00:41:07;;;;;;;5.70;1.43;;;;;;;10.11;100.00;99155.28;5073814;28;20441;-68
2023/04/01 00:43:34;;;;;;;9.60;1.50;;;;;;;10.14;100.00;99157.31;5073493;28;20500;-68
2023/04/01 00:46:01;;;;;;;5.97;1.67;;;;;;;10.14;100.00;99157.31;5073586;28;20528;-68
2023/04/01 00:48:31;;;;;;;5.90;1.60;;;;;;;10.16;100.00;99157.75;5073298;28;20520;-68
2023/04/01 00:51:01;;;;;;;6.80;1.60;;;;;;;10.16;100.00;99152.34;5073604;28;20467;-68
2023/04/01 00:53:32;;;;;;;6.37;1.60;;;;;;;10.12;100.00;99156.84;5073189;28;20470;-68
2023/04/01 00:56:02;;;;;;;6.53;1.50;;;;;;;10.15;100.00;99150.78;5073086;28;21046;-68
2023/04/01 00:58:32;;;;;;;5.30;1.50;;;;;;;10.17;100.00;99159.34;5073183;28;20449;-67
2023/04/01 01:01:00;;;;;;;5.53;1.57;;;;;;;10.20;100.00;99157.91;5073081;28;20939;-68
2023/04/01 01:03:27;;;;;;;8.13;1.97;;;;;;;10.21;100.00;99160.25;5073195;28;20848;-68
2023/04/01 01:06:11;;;;;;;6.40;1.73;;;;;;;10.23;100.00;99168.06;5073408;28;20441;-68
2023/04/01 01:08:59;;;;;;;6.30;1.37;;;;;;;10.18;100.00;99163.66;5073414;28;20454;-68
2023/04/01 01:11:35;;;;;;;7.00;1.57;;;;;;;10.19;100.00;99154.41;5072978;28;20790;-67
2023/04/01 01:14:09;;;;;;;7.13;1.50;;;;;;;10.18;100.00;99150.13;5073254;28;20471;-68
2023/04/01 01:16:39;;;;;;;6.80;1.93;;;;;;;10.17;100.00;99153.94;5073352;28;20418;-68
2023/04/01 01:19:11;;;;;;;5.67;1.70;;;;;;;10.22;100.00;99156.41;5072960;28;20516;-68
2023/04/01 01:22:03;;;;;;;8.07;1.87;;;;;;;10.21;100.00;99156.75;5072961;28;20972;-68
2023/04/01 01:24:43;;;;;;;6.70;1.50;;;;;;;10.18;100.00;99150.13;5073343;28;20896;-68
2023/04/01 01:27:12;;;;;;;5.50;1.50;;;;;;;10.17;100.00;99153.94;5073537;28;20468;-67
2023/04/01 01:30:13;;;;;;;6.53;1.40;;;;;;;10.18;100.00;99163.66;5073267;28;20473;-67
2023/04/01 01:33:05;;;;;;;4.90;1.33;;;;;;;10.19;100.00;99167.13;5073178;28;20421;-68
2023/04/01 01:35:36;;;;;;;6.33;1.80;;;;;;;10.14;100.00;99165.44;5072992;28;20554;-68
2023/04/01 01:38:07;;;;;;;8.10;1.60;;;;;;;10.13;100.00;99165.75;5072880;28;20425;-68
2023/04/01 01:40:35;;;;;;;5.23;1.37;;;;;;;10.10;100.00;99170.72;5073054;28;20434;-68
2023/04/01 01:43:06;;;;;;;10.30;1.50;;;;;;;10.08;100.00;99166.75;5072892;28;20450;-68
2023/04/01 01:45:36;;;;;;;5.63;1.40;;;;;;;10.14;100.00;99165.44;5072975;28;20557;-68
2023/04/01 01:48:05;;;;;;;5.87;1.43;;;;;;;10.15;100.00;99166.22;5072744;28;20421;-68
2023/04/01 01:50:35;;;;;;;8.20;1.60;;;;;;;10.17;100.00;99172.09;5072603;28;20821;-68
2023/04/01 01:53:06;;;;;;;6.10;1.47;;;;;;;10.16;100.00;99165.09;5072543;28;20449;-68
2023/04/01 01:55:35;;;;;;;6.63;1.67;;;;;;;10.18;100.00;99169.06;5073279;28;20831;-68
2023/04/01 01:58:12;;;;;;;5.20;1.33;;;;;;;10.19;100.00;99164.44;5076923;28;20441;-68
2023/04/01 02:00:41;;;;;;;5.90;1.40;;;;;;;10.22;100.00;99169.16;5076580;28;20431;-68
2023/04/01 02:03:08;;;;;;;6.53;1.60;;;;;;;10.22;100.00;99169.16;5076281;28;20453;-68
2023/04/01 02:05:36;;;;;;;5.33;1.20;;;;;;;10.20;100.00;99166.00;5076468;28;20886;-68
2023/04/01 02:08:07;;;;;;;6.83;1.57;;;;;;;10.18;100.00;99160.94;5076419;28;20964;-68
2023/04/01 02:10:38;;;;;;;5.30;1.70;;;;;;;10.16;100.00;99165.09;5076378;28;20428;-68
2023/04/01 02:13:13;;;;;;;5.40;1.50;;;;;;;10.13;100.00;99177.34;5076224;28;20418;-68
2023/04/01 02:15:45;;;;;;;5.17;1.23;;;;;;;10.16;100.00;99168.59;5076492;28;20464;-68
2023/04/01 02:18:14;;;;;;;5.73;1.40;;;;;;;10.12;100.00;99178.50;5076357;28;20443;-68
2023/04/01 02:20:43;;;;;;;7.50;1.60;;;;;;;10.11;100.00;99177.69;5076149;28;20486;-68
2023/04/01 02:23:11;;;;;;;5.23;1.70;;;;;;;10.07;100.00;99176.78;5076341;28;20449;-68
2023/04/01 02:25:39;;;;;;;5.90;1.57;;;;;;;10.08;100.00;99174.88;5076362;28;20452;-68
2023/04/01 02:28:08;;;;;;;5.80;2.00;;;;;;;10.05;100.00;99170.13;5076362;28;20805;-68
2023/04/01 02:30:38;;;;;;;5.27;1.43;;;;;;;10.07;100.00;99176.78;5076232;28;20869;-68
2023/04/01 02:33:06;;;;;;;6.33;1.50;;;;;;;10.06;100.00;99177.13;5076167;28;20426;-70
2023/04/01 02:35:36;;;;;;;9.43;1.73;;;;;;;10.11;100.00;99172.28;5075779;28;20496;-70
2023/04/01 02:38:05;;;;;;;5.50;1.43;;;;;;;10.10;100.00;99175.34;5076178;28;20437;-70
2023/04/01 02:40:43;;;;;;;6.77;1.30;;;;;;;10.13;100.00;99176.56;5076028;28;20676;-69
2023/04/01 02:43:09;;;;;;;5.93;1.63;;;;;;;10.13;100.00;99182.78;5075721;28;20516;-69
2023/04/01 02:45:36;;;;;;;5.20;1.30;;;;;;;10.09;100.00;99177.25;5076038;28;20448;-69
2023/04/01 02:48:03;;;;;;;9.13;1.87;;;;;;;10.06;100.00;99187.94;5075938;28;20480;-69
2023/04/01 02:50:30;;;;;;;6.73;1.37;;;;;;;10.00;100.00;99187.34;5075888;28;20528;-69
2023/04/01 02:52:57;;;;;;;5.73;1.63;;;;;;;10.02;100.00;99197.84;5075910;28;20437;-69
2023/04/01 02:55:25;;;;;;;6.13;1.67;;;;;;;10.02;100.00;99189.72;5075658;28;20489;-68
2023/04/01 02:57:51;;;;;;;5.57;1.40;;;;;;;10.00;100.00;99194.66;5075772;28;20445;-68
2023/04/01 03:00:18;;;;;;;4.93;1.23;;;;;;;10.00;100.00;99189.25;5075436;28;20445;-69
2023/04/01 03:02:45;;;;;;;5.73;1.50;;;;;;;9.97;100.00;99193.44;5075688;28;20441;-69
2023/04/01 03:05:12;;;;;;;6.23;1.40;;;;;;;10.01;100.00;99202.47;5098912;22;20588;-67
2023/04/01 03:07:39;;;;;;;4.97;1.20;;;;;;;10.03;100.00;99200.22;5074423;28;20624;-67
2023/04/01 03:10:07;;;;;;;5.67;1.63;;;;;;;10.05;100.00;99205.31;5075622;28;20445;-66
2023/04/01 03:12:35;;;;;;;6.27;1.37;;;;;;;10.03;100.00;99204.81;5075595;28;20512;-66
2023/04/01 03:15:02;;;;;;;7.70;2.10;;;;;;;10.02;100.00;99200.53;5075447;28;20501;-67
2023/04/01 03:17:29;;;;;;;6.27;1.40;;;;;;;9.99;100.00;99202.00;5075275;28;20519;-67
2023/04/01 03:19:55;;;;;;;4.90;0.93;;;;;;;9.97;100.00;99204.25;5075465;28;20579;-66
2023/04/01 03:22:22;;;;;;;5.30;1.20;;;;;;;9.99;100.00;99201.19;5075107;28;20449;-66
2023/04/01 03:24:49;;;;;;;6.67;1.80;;;;;;;9.93;100.00;99203.31;5075335;28;20465;-67
2023/04/01 03:27:16;;;;;;;6.20;1.73;;;;;;;10.00;100.00;99211.69;5075351;28;20468;-67
2023/04/01 03:29:44;;;;;;;6.10;1.73;;;;;;;10.00;100.00;99206.28;5075257;28;20445;-67
2023/04/01 03:32:10;;;;;;;9.33;1.67;;;;;;;10.04;100.00;99209.09;5075288;28;20465;-68
2023/04/01 03:34:37;;;;;;;5.20;1.20;;;;;;;10.04;100.00;99203.69;5074779;28;20532;-67
2023/04/01 03:37:04;;;;;;;9.10;1.77;;;;;;;10.08;100.00;99212.75;5075164;28;20503;-67
2023/04/01 03:39:31;;;;;;;5.50;1.60;;;;;;;10.07;100.00;99213.88;5075107;28;20453;-67
2023/04/01 03:41:58;;;;;;;5.60;1.30;;;;;;;10.08;100.00;99216.22;5075089;28;20463;-66
2023/04/01 03:44:25;;;;;;;5.63;1.20;;;;;;;10.07;100.00;99211.94;5074918;28;20443;-68
2023/04/01 03:46:52;;;;;;;5.00;1.40;;;;;;;10.10;100.00;99221.34;5074852;28;20449;-64
2023/04/01 03:49:19;;;;;;;5.50;1.60;;;;;;;10.09;100.00;99227.84;5074506;28;20540;-64
2023/04/01 03:51:46;;;;;;;4.83;1.17;;;;;;;10.14;100.00;99227.66;5074464;28;20445;-64
2023/04/01 03:54:12;;;;;;;6.47;1.60;;;;;;;10.16;100.00;99233.53;5074747;28;20477;-64
2023/04/01 03:56:39;;;;;;;5.97;1.60;;;;;;;10.16;100.00;99222.69;5074160;28;20489;-65
2023/04/01 03:59:08;;;;;;;5.70;1.57;;;;;;;10.16;100.00;99230.81;5074410;28;20449;-64
2023/04/01 04:01:34;;;;;;;4.87;1.07;;;;;;;10.16;100.00;99228.13;5074504;28;20437;-64
2023/04/01 04:04:02;;;;;;;4.83;1.07;;;;;;;10.14;100.00;99233.06;5074573;28;20496;-65
2023/04/01 04:06:29;;;;;;;7.57;1.73;;;;;;;10.12;100.00;99227.19;5074087;28;20468;-65
2023/04/01 04:08:56;;;;;;;7.43;1.90;;;;;;;10.09;100.00;99230.53;5074187;28;20877;-64
2023/04/01 04:11:23;;;;;;;6.13;1.43;;;;;;;10.10;100.00;99237.56;5074092;28;20477;-65
2023/04/01 04:13:50;;;;;;;5.37;1.30;;;;;;;10.14;100.00;99243.91;5074006;28;20990;-65
2023/04/01 04:16:17;;;;;;;6.03;1.43;;;;;;;10.10;100.00;99238.34;5073703;28;21017;-64
2023/04/01 04:18:44;;;;;;;7.03;1.10;;;;;;;10.08;100.00;99242.50;5073878;28;20468;-64
2023/04/01 04:21:15;;;;;;;6.67;1.33;;;;;;;10.05;100.00;99245.88;5074240;28;20520;-65
2023/04/01 04:23:41;;;;;;;6.00;1.33;;;;;;;10.03;100.00;99250.81;5074189;28;20512;-65
2023/04/01 04:26:10;;;;;;;5.90;1.57;;;;;;;10.04;100.00;99244.28;5074073;28;20557;-65
2023/04/01 04:28:36;;;;;;;5.60;1.50;;;;;;;10.04;100.00;99250.47;5073650;28;20981;-65
2023/04/01 04:31:04;;;;;;;6.33;1.47;;;;;;;10.02;100.00;99249.25;5073649;28;20437;-64
2023/04/01 04:33:31;;;;;;;6.93;1.60;;;;;;;9.99;100.00;99247.19;5073657;28;20499;-64
2023/04/01 04:35:59;;;;;;;5.27;1.40;;;;;;;9.97;100.00;99252.16;5073528;28;20861;-65
2023/04/01 04:38:27;;;;;;;5.30;1.50;;;;;;;9.93;100.00;99249.31;5073905;28;20441;-65
2023/04/01 04:40:54;;;;;;;6.63;2.10;;;;;;;9.96;100.00;99250.53;5073494;28;20949;-65
2023/04/01 04:43:21;;;;;;;5.63;1.60;;;;;;;9.98;100.00;99251.03;5073402;28;20477;-65
2023/04/01 04:45:47;;;;;;;5.80;1.40;;;;;;;10.00;100.00;99249.56;5073648;28;20485;-65
2023/04/01 04:48:18;;;;;;;6.73;1.70;;;;;;;10.01;100.00;99259.28;5073721;28;20448;-65
2023/04/01 04:50:45;;;;;;;8.07;1.70;;;;;;;10.01;100.00;99259.28;5073808;28;20426;-65
2023/04/01 04:53:12;;;;;;;5.90;1.90;;;;;;;10.07;100.00;99262.56;5073588;28;20524;-65
2023/04/01 04:55:43;;;;;;;8.43;1.77;;;;;;;10.04;100.00;99266.72;5073511;28;20583;-65
2023/04/01 04:58:10;;;;;;;6.40;1.87;;;;;;;10.09;100.00;99261.13;5073675;28;20426;-65
2023/04/01 05:00:37;;;;;;;5.97;1.60;;;;;;;10.06;100.00;99266.41;5073565;28;20441;-64
2023/04/01 05:03:03;;;;;;;7.93;1.53;;;;;;;10.10;100.00;99264.63;5073226;28;20452;-64
2023/04/01 05:05:30;;;;;;;6.10;1.63;;;;;;;10.10;100.00;99267.31;5073146;28;20505;-64
2023/04/01 05:07:56;;;;;;;7.50;1.63;;;;;;;10.10;100.00;99260.00;5073424;28;20437;-64
2023/04/01 05:10:23;;;;;;;6.33;1.73;;;;;;;10.12;100.00;99267.78;5073073;28;20441;-66
2023/04/01 05:12:51;;;;;;;6.93;2.33;;;;;;;10.11;100.00;99277.81;5073091;28;20953;-65
2023/04/01 05:15:18;;;;;;;7.60;1.87;;;;;;;10.16;100.00;99271.41;5073165;28;20458;-64
2023/04/01 05:17:44;;;;;;;8.23;2.43;;;;;;;10.13;100.00;99272.06;5072758;28;20873;-65
2023/04/01 05:20:13;;;;;;;9.70;3.40;;;;;;;10.19;100.00;99276.16;5073245;28;20528;-63
2023/04/01 05:22:40;;;;;;;8.60;3.20;;;;;;;10.24;100.00;99278.69;5073137;28;20539;-64
2023/04/01 05:25:07;;;;;;;9.10;3.00;;;;;;;10.26;100.00;99281.84;5072861;28;20461;-64
2023/04/01 05:27:34;;;;;;;8.73;2.00;;;;;;;10.29;100.00;99283.91;5072857;28;20441;-64
2023/04/01 05:30:02;;;;;;;9.97;2.60;;;;;;;10.29;100.00;99286.59;5072336;28;20473;-65
2023/04/01 05:32:29;;;;;;;6.37;2.10;;;;;;;10.31;100.00;99284.38;5072913;28;20460;-65
2023/04/01 05:34:55;;;;;;;8.17;2.77;;;;;;;10.35;100.00;99287.97;5072984;28;20458;-65
2023/04/01 05:37:23;;;;;;;7.30;2.27;;;;;;;10.38;100.00;99285.75;5073048;28;20481;-65
2023/04/01 05:39:49;;;;;;;7.30;2.80;;;;;;;10.40;100.00;99286.19;5073119;28;20438;-64
2023/04/01 05:42:16;;;;;;;14.13;3.20;;;;;;;10.40;100.00;99289.69;5073104;28;20441;-63
2023/04/01 05:44:42;;;;;;;6.53;2.10;;;;;;;10.41;100.00;99287.81;5073114;28;20552;-63
2023/04/01 05:47:10;;;;;;;7.67;2.53;;;;;;;10.39;100.00;99298.16;5072898;28;20939;-67
2023/04/01 05:49:37;;;;;;;8.30;2.40;;;;;;;10.42;100.00;99297.50;5073037;28;20520;-65
2023/04/01 05:52:04;;;;;;;7.73;2.40;;;;;;;10.44;100.00;99301.44;5072927;28;20444;-65
2023/04/01 05:54:30;;;;;;;6.70;2.40;;;;;;;10.46;100.00;99301.91;5072805;28;20499;-65
2023/04/01 05:56:57;;;;;;;6.60;2.20;;;;;;;10.51;100.00;99306.34;5072869;28;20503;-64
2023/04/01 05:59:23;;;;;;;7.00;2.40;;;;;;;10.54;100.00;99309.19;5072392;28;20539;-64
2023/04/01 06:01:51;;;;;;;6.07;1.97;;;;;;;10.55;100.00;99307.25;5072380;28;20453;-64
2023/04/01 06:04:19;;;;;;;7.10;2.00;;;;;;;10.53;100.00;99315.69;5072805;28;20436;-66
2023/04/01 06:06:46;;;;;;;6.10;2.10;;;;;;;10.56;100.00;99317.75;5072512;28;20449;-65
2023/04/01 06:09:17;;;;;;;9.10;2.10;;;;;;;10.56;100.00;99316.97;5072869;28;20532;-65
2023/04/01 06:11:57;;;;;;;7.50;2.00;;;;;;;10.59;100.00;99324.44;5072514;28;20462;-65
2023/04/01 06:14:35;;;;;;;5.90;1.77;;;;;;;10.58;100.00;99325.53;5072637;28;20429;-65
2023/04/01 06:17:14;;;;;;;5.80;2.00;;;;;;;10.60;100.00;99326.78;5072559;28;20996;-68
2023/04/01 06:19:51;;;;;;;6.00;1.80;;;;;;;10.63;100.00;99328.06;5072711;28;20426;-64
2023/04/01 06:22:46;;;;;;;6.80;1.90;;;;;;;10.65;100.00;99331.22;5072697;28;20461;-67
2023/04/01 06:25:28;;;;;;;7.80;1.80;;;;;;;10.70;100.00;99327.50;5072281;28;21025;-66
2023/04/01 06:28:07;;;;;;;6.30;2.03;;;;;;;10.69;100.00;99337.56;5072381;28;20427;-65
2023/04/01 06:30:43;;;;;;;7.27;2.40;;;;;;;10.72;100.00;99327.97;5072379;28;20517;-66
2023/04/01 06:33:37;;;;;;;10.73;2.87;;;;;;;10.79;100.00;99331.72;5072584;28;20457;-67
2023/04/01 06:36:24;;;;;;;6.73;1.80;;;;;;;10.84;100.00;99339.63;5072382;28;20473;-67
2023/04/01 06:39:08;;;;;;;6.70;2.17;;;;;;;10.86;100.00;99340.09;5072344;28;20525;-68
2023/04/01 06:41:51;;;;;;;6.40;2.30;;;;;;;10.93;100.00;99344.19;5073004;28;20426;-72
2023/04/01 06:44:25;;;;;;;5.90;1.90;;;;;;;10.99;100.00;99351.78;5076245;28;20425;-68
2023/04/01 06:46:58;;;;;;;5.87;1.60;;;;;;;11.04;100.00;99350.78;5075835;28;20461;-68
2023/04/01 06:49:41;;;;;;;9.63;1.80;;;;;;;11.09;100.00;99351.34;5075841;28;20422;-69
2023/04/01 06:52:18;;;;;;;8.10;2.43;;;;;;;11.15;100.00;99353.84;5076225;28;20425;-68
2023/04/01 06:54:49;;;;;;;6.50;1.80;;;;;;;11.20;100.00;99350.91;5075906;28;20502;-68
2023/04/01 06:57:24;;;;;;;6.00;2.20;;;;;;;11.23;100.00;99356.47;5075883;28;20983;-69
2023/04/01 06:59:53;;;;;;;6.23;1.63;;;;;;;11.26;100.00;99361.22;5075754;28;20808;-69
2023/04/01 07:02:26;;;;;;;7.70;1.30;;;;;;;11.29;100.00;99360.56;5076824;28;20492;-71
2023/04/01 07:04:56;;;;;;;5.60;1.57;;;;;;;11.29;100.00;99355.13;5076500;28;20978;-72
2023/04/01 07:07:31;;;;;;;6.53;2.07;;;;;;;11.29;100.00;99360.56;5076000;28;20442;-71
2023/04/01 07:10:03;;;;;;;5.90;1.73;;;;;;;11.30;100.00;99369.47;5075830;28;20425;-69
2023/04/01 07:12:41;;;;;;;14.67;1.80;;;;;;;11.31;100.00;99361.00;5075587;28;20798;-68
2023/04/01 07:15:17;;;;;;;7.20;2.30;;;;;;;11.36;100.00;99363.50;5075513;28;20837;-71
2023/04/01 07:17:46;;;;;;;5.80;1.60;;;;;;;11.41;100.00;99367.91;5075320;28;21053;-70
2023/04/01 07:20:20;;;;;;;6.93;1.90;;;;;;;11.43;100.00;99371.09;5075552;28;20553;-71
2023/04/01 07:22:51;;;;;;;11.07;2.07;;;;;;;11.48;100.00;99372.78;5075484;28;20421;-72
2023/04/01 07:25:21;;;;;;;5.33;1.57;;;;;;;11.45;100.00;99370.75;5075375;28;20452;-72
2023/04/01 07:27:48;;;;;;;5.40;1.67;;;;;;;11.44;100.00;99367.25;5075367;28;20440;-71
2023/04/01 07:30:16;;;;;;;6.40;1.97;;;;;;;11.47;100.00;99376.63;5074927;28;20956;-68
2023/04/01 07:32:48;;;;;;;6.27;1.77;;;;;;;11.50;100.00;99382.16;5075309;28;20480;-70
2023/04/01 07:35:24;;;;;;;6.00;2.17;;;;;;;11.57;100.00;99384.31;5075191;28;20544;-70
2023/04/01 07:38:07;;;;;;;6.57;2.20;;;;;;;11.62;100.00;99384.88;5075142;28;20560;-70
2023/04/01 07:40:42;;;;;;;6.97;2.17;;;;;;;11.60;100.00;99386.38;5075157;28;20859;-70
2023/04/01 07:43:24;;;;;;;6.70;2.13;;;;;;;11.58;100.00;99389.41;5074956;28;20512;-70
2023/04/01 07:45:59;;;;;;;9.10;1.40;;;;;;;11.63;100.00;99397.31;5074949;28;20454;-70
2023/04/01 07:48:36;;;;;;;6.00;1.87;;;;;;;11.71;100.00;99389.41;5074960;28;20437;-69
2023/04/01 07:51:08;;;;;;;10.97;2.53;;;;;;;11.81;100.00;99387.03;5074670;28;20468;-70
2023/04/01 07:53:44;;;;;;;6.97;1.53;;;;;;;11.80;100.00;99385.47;5074228;28;20804;-70
2023/04/01 07:56:16;;;;;;;7.63;1.87;;;;;;;11.88;100.00;99393.88;5074350;28;20471;-69
2023/04/01 07:58:54;;;;;;;6.23;2.10;;;;;;;11.91;100.00;99395.91;5074886;28;20430;-69
2023/04/01 08:01:29;;;;;;;8.70;1.60;;;;;;;11.93;100.00;99401.78;5074297;28;20516;-70
2023/04/01 08:04:17;;;;;;;6.00;1.60;;;;;;;11.89;100.00;99403.59;5074361;28;20431;-70
2023/04/01 08:06:48;;;;;;;5.63;1.77;;;;;;;11.80;100.00;99406.38;5074122;28;20543;-70
2023/04/01 08:09:28;;;;;;;6.00;1.70;;;;;;;11.80;100.00;99399.03;5074132;28;20436;-70
2023/04/01 08:12:09;;;;;;;6.00;1.70;;;;;;;11.73;100.00;99404.25;5074387;28;20426;-69
2023/04/01 08:14:47;;;;;;;8.00;1.90;;;;;;;11.71;100.00;99405.69;5074213;28;20512;-70
2023/04/01 08:17:21;;;;;;;5.27;1.13;;;;;;;11.68;100.00;99407.16;5074372;28;20491;-69
2023/04/01 08:20:02;;;;;;;5.50;1.20;;;;;;;11.68;100.00;99412.56;5074001;28;20512;-66
2023/04/01 08:22:33;;;;;;;6.50;1.20;;;;;;;11.70;100.00;99404.91;5073954;28;20848;-66
2023/04/01 08:25:07;;;;;;;5.90;1.23;;;;;;;11.72;100.00;99410.78;5074135;28;20544;-67
2023/04/01 08:27:38;;;;;;;4.97;1.07;;;;;;;11.77;100.00;99418.69;5074162;28;20447;-69
2023/04/01 08:30:16;;;;;;;4.90;1.13;;;;;;;11.75;100.00;99420.97;5074162;28;20509;-69
2023/04/01 08:32:48;;;;;;;4.47;0.90;;;;;;;11.75;100.00;99420.19;5074276;28;20425;-69
2023/04/01 08:35:21;;;;;;;7.50;1.30;;;;;;;11.73;100.00;99417.81;5074143;28;20497;-70
2023/04/01 08:37:51;;;;;;;5.37;1.20;;;;;;;11.72;100.00;99431.69;5073684;28;20544;-69
2023/04/01 08:40:38;;;;;;;5.27;0.90;;;;;;;11.54;100.00;99434.59;5073965;28;20430;-69
2023/04/01 08:43:16;;;;;;;4.80;1.00;;;;;;;11.39;100.00;99442.59;5073720;28;20436;-69
2023/04/01 08:45:57;;;;;;;4.63;0.90;;;;;;;11.24;100.00;99435.84;5073848;28;20457;-69
2023/04/01 08:48:49;;;;;;;4.90;0.90;;;;;;;11.16;100.00;99445.69;5073485;28;20428;-69
2023/04/01 08:51:48;;;;;;;4.60;0.80;;;;;;;11.12;100.00;99444.75;5073730;28;20806;-69
2023/04/01 08:54:29;;;;;;;5.13;1.00;;;;;;;11.05;100.00;99453.41;5073778;28;20823;-69
2023/04/01 08:57:05;;;;;;;5.00;0.97;;;;;;;10.91;100.00;99446.69;5073475;28;20461;-69
2023/04/01 08:59:57;;;;;;;5.17;1.43;;;;;;;10.90;100.00;99445.09;5073833;28;20425;-69
2023/04/01 09:02:56;;;;;;;10.40;1.90;;;;;;;10.84;100.00;99445.28;5073287;28;20963;-69
2023/04/01 09:05:38;;;;;;;5.83;1.10;;;;;;;10.84;100.00;99441.78;5072966;28;21021;-69
2023/04/01 09:08:19;;;;;;;6.03;1.43;;;;;;;10.77;100.00;99446.94;5073660;28;20421;-69
2023/04/01 09:11:05;;;;;;;7.17;2.20;;;;;;;10.72;100.00;99463.41;5073513;28;20429;-69
2023/04/01 09:14:13;;;;;;;6.30;1.87;;;;;;;10.67;100.00;99456.25;5073490;28;20421;-69
2023/04/01 09:17:02;;;;;;;6.17;2.00;;;;;;;10.54;100.00;99460.00;5056199;28;20541;-69
2023/04/01 09:19:42;;;;;;;6.90;1.90;;;;;;;10.46;100.00;99469.78;5073052;28;20520;-69
2023/04/01 09:22:23;;;;;;;8.77;2.30;;;;;;;10.49;100.00;99469.13;5073336;28;20794;-69
2023/04/01 09:25:07;;;;;;;6.37;2.10;;;;;;;10.49;100.00;99469.13;5072943;28;20461;-69
2023/04/01 09:27:41;;;;;;;7.67;2.50;;;;;;;10.43;100.00;99469.63;5073331;28;20459;-69
2023/04/01 09:30:34;;;;;;;8.70;2.77;;;;;;;10.48;100.00;99477.56;5073143;28;20898;-69
2023/04/01 09:33:34;;;;;;;7.77;3.50;;;;;;;10.49;100.00;99479.13;5072963;28;20518;-68
2023/04/01 09:36:13;;;;;;;8.10;2.63;;;;;;;10.49;100.00;99485.38;5072863;28;20920;-69
2023/04/01 09:38:56;;;;;;;7.40;2.70;;;;;;;10.47;100.00;99487.59;5073063;28;20472;-69
2023/04/01 09:41:30;;;;;;;9.90;4.03;;;;;;;10.47;100.00;99484.09;5073241;28;20422;-68
2023/04/01 09:44:03;;;;;;;9.37;3.67;;;;;;;10.54;100.00;99496.00;5073231;28;20465;-69
2023/04/01 09:46:53;;;;;;;8.40;3.70;;;;;;;10.52;100.00;99495.53;5073001;28;20462;-68
2023/04/01 09:49:42;;;;;;;11.10;4.07;;;;;;;10.57;100.00;99502.66;5073130;28;20428;-69
2023/04/01 09:52:21;;;;;;;10.50;4.57;;;;;;;10.52;100.00;99497.44;5073198;28;20433;-69
2023/04/01 09:55:07;;;;;;;8.97;3.70;;;;;;;10.56;100.00;99503.78;5072921;28;20504;-68
2023/04/01 09:58:11;;;;;;;7.50;3.43;;;;;;;10.51;100.00;99503.97;5072713;28;20476;-69
2023/04/01 10:01:15;;;;;;;9.63;4.53;;;;;;;10.50;100.00;99510.53;5072946;28;20430;-68
2023/04/01 10:04:11;;;;;;;12.20;5.67;;;;;;;10.41;100.00;99517.91;5072961;28;20445;-69
2023/04/01 10:07:20;;;;;;;13.67;4.70;;;;;;;10.43;100.00;99512.94;5045906;28;20473;-69
2023/04/01 10:10:21;;;;;;;12.73;3.77;;;;;;;10.46;100.00;99513.09;5072941;28;20453;-69
2023/04/01 10:13:03;;;;;;;11.90;4.90;;;;;;;10.44;100.00;99520.72;5073085;28;20436;-69
2023/04/01 10:15:57;;;;;;;9.10;3.37;;;;;;;10.46;100.00;99528.53;5072478;28;20552;-69
2023/04/01 10:18:47;;;;;;;9.87;4.10;;;;;;;10.44;100.00;99526.13;5076145;28;20461;-69
2023/04/01 10:21:47;;;;;;;10.70;4.10;;;;;;;10.48;100.00;99535.19;5076353;28;20426;-69
2023/04/01 10:24:43;;;;;;;8.93;3.90;;;;;;;10.46;100.00;99533.94;5057601;28;20872;-70
2023/04/01 10:27:57;;;;;;;10.37;4.20;;;;;;;10.43;100.00;99529.97;5076334;28;20429;-69
2023/04/01 10:30:48;;;;;;;9.67;3.60;;;;;;;10.47;100.00;99538.25;5025080;28;20441;-69
2023/04/01 10:33:38;;;;;;;7.60;3.30;;;;;;;10.53;100.00;99542.34;5076263;28;20430;-69
2023/04/01 10:36:39;;;;;;;8.83;3.60;;;;;;;10.53;100.00;99545.84;5076377;28;20532;-70
2023/04/01 10:39:35;;;;;;;11.40;4.27;;;;;;;10.35;100.00;99549.75;5073023;28;21029;-68
2023/04/01 10:42:19;;;;;;;9.90;4.20;;;;;;;10.24;100.00;99546.63;5076337;28;20429;-69
2023/04/01 10:45:22;;;;;;;9.77;4.03;;;;;;;10.00;100.00;99554.44;5076302;28;20489;-71
2023/04/01 10:48:10;;;;;;;9.07;3.60;;;;;;;9.98;100.00;99549.38;5076215;28;20986;-70
2023/04/01 10:51:15;;;;;;;11.40;4.27;;;;;;;10.02;100.00;99549.53;5075971;28;20516;-70
2023/04/01 10:53:55;;;;;;;9.07;4.00;;;;;;;10.07;100.00;99555.53;5076083;28;20421;-69
2023/04/01 10:56:41;;;;;;;12.67;4.70;;;;;;;10.16;100.00;99552.03;5076057;28;20464;-70
2023/04/01 10:59:29;;;;;;;9.93;4.63;;;;;;;10.14;100.00;99560.47;5075943;28;20476;-70
2023/04/01 11:02:31;;;;;;;9.97;4.20;;;;;;;10.15;100.00;99559.34;5076008;28;20425;-69
2023/04/01 11:05:44;;;;;;;10.60;4.23;;;;;;;10.09;100.00;99557.91;5075695;28;20478;-69
2023/04/01 11:08:46;;;;;;;10.10;3.90;;;;;;;10.11;100.00;99561.13;5075947;28;20508;-69
2023/04/01 11:11:43;;;;;;;8.70;3.33;;;;;;;10.15;100.00;99566.69;5075733;28;20453;-69
2023/04/01 11:15:06;;;;;;;8.80;3.63;;;;;;;10.12;100.00;99578.94;5075396;28;20425;-70
2023/04/01 11:17:56;;;;;;;8.10;3.00;;;;;;;10.06;100.00;99569.41;5075453;28;20467;-70
2023/04/01 11:20:52;;;;;;;7.93;2.90;;;;;;;10.13;100.00;99572.41;5075638;28;20433;-69
2023/04/01 11:23:35;;;;;;;9.80;3.03;;;;;;;10.14;100.00;99576.72;5075139;28;21025;-70
2023/04/01 11:26:08;;;;;;;9.00;3.53;;;;;;;10.18;100.00;99577.66;5075610;28;20475;-70
2023/04/01 11:29:05;;;;;;;7.70;2.70;;;;;;;10.26;100.00;99584.97;5074323;28;20425;-69
2023/04/01 11:31:53;;;;;;;7.30;3.33;;;;;;;10.19;100.00;99589.28;5075314;28;20805;-67
2023/04/01 11:34:36;;;;;;;8.20;3.00;;;;;;;10.04;100.00;99593.28;5075254;28;20501;-69
2023/04/01 11:37:12;;;;;;;8.90;2.77;;;;;;;10.03;100.00;99597.88;5075324;28;20521;-68
2023/04/01 11:39:51;;;;;;;7.77;2.90;;;;;;;9.99;100.00;99591.53;5075128;28;20472;-68
2023/04/01 11:42:29;;;;;;;8.53;3.03;;;;;;;10.02;100.00;99604.41;5074722;28;20433;-69
2023/04/01 11:45:08;;;;;;;8.00;3.03;;;;;;;9.92;100.00;99595.84;5074810;28;20990;-70
2023/04/01 11:48:09;;;;;;;6.60;2.70;;;;;;;9.84;100.00;99610.97;5075129;28;20437;-68
2023/04/01 11:50:53;;;;;;;8.77;3.37;;;;;;;9.91;100.00;99610.47;5075049;28;20464;-70
2023/04/01 11:53:28;;;;;;;10.53;3.33;;;;;;;10.08;100.00;99615.88;5074815;28;20429;-68
2023/04/01 11:56:03;;;;;;;8.80;3.83;;;;;;;10.17;100.00;99619.34;5074145;28;20548;-69
2023/04/01 11:58:45;;;;;;;8.67;3.37;;;;;;;10.28;100.00;99628.75;5074149;28;20911;-66
2023/04/01 12:01:22;;;;;;;7.87;2.83;;;;;;;10.24;100.00;99625.09;5074315;28;20433;-68
2023/04/01 12:04:37;;;;;;;7.73;3.37;;;;;;;10.15;100.00;99624.28;5073937;28;20930;-69